Startpagina
METAR-TAF:

METAR-TAF

Vliegvelden :

Liege Airport

Luik, België

breedte: 50-39N, lengte: 005-27E, hoogte: 186 m

Actueel weer

Dit bericht is 36 minuten geleden gemaakt, om 10:50 UTC
Wind 5 kt uit het zuidoosten
Temperatuur 7°C
Vochtigheid 76%
Druk 1027 hPa
Zicht 10 km of meer
geen wolken onder 1500 m en geen cumulonimbus

METAR: EBLG 161050Z 14005KT CAVOK 07/03 Q1027 NOSIG

Tijdstip: 12:26 (11:26 UTC)

Verwachting

Dit bericht is 6 uur en het 26 minuten geleden gemaakt, om 05:00 UTC
Verwachting geldig van 16 om 06 UTC tot 17 om 12 UTC
Wind 5 kt uit het zuidzuidoosten
Zicht: 8000 m
Kans 30% :
Tijdelijke
van 16 om 06 UTC tot 16 om 09 UTC
Zicht: 4000 m
nevel
Kans 30% :
Tijdelijke
van 17 om 02 UTC tot 17 om 06 UTC
Zicht: 1500 m
Ondiepe mist, nevel

TAF: EBLG 160500Z 1606/1712 15005KT 8000 NSC PROB30 TEMPO 1606/1609 4000 BR PROB30 TEMPO 1702/1706 1500 MIFG BR

Waarnemingen en weersverwachtingen van meer dan 4000 vliegvelden (METAR en TAF).

De beschikbare stations zijn de gele en rode punten op de kaart.

Ga met uw muis naar het station om de naam te zien.

Klik dan om waarnemingen en weersverwachtingen te zien.

kaart wijzigen: klik op de groene knoppen met een zwart kruis om in te zoomen, op de groene knop met een streepje om uit te zoomen of op de groene pijlen voor aangrenzende kaarten.


METAR-TAF: